sensor_id;sensor_type;location;lat;lon;timestamp;P1;durP1;ratioP1;P2;durP2;ratioP2
12792;SDS011;6460;42.684;23.260;2023-07-31T00:01:31;2.67;;;2.47;;
12792;SDS011;6460;42.684;23.260;2023-07-31T00:04:00;2.70;;;2.50;;
12792;SDS011;6460;42.684;23.260;2023-07-31T00:06:28;3.57;;;2.87;;
12792;SDS011;6460;42.684;23.260;2023-07-31T00:08:55;3.33;;;3.03;;
12792;SDS011;6460;42.684;23.260;2023-07-31T00:11:23;3.30;;;3.00;;
12792;SDS011;6460;42.684;23.260;2023-07-31T00:13:50;2.97;;;2.70;;
12792;SDS011;6460;42.684;23.260;2023-07-31T00:16:17;3.27;;;2.97;;
12792;SDS011;6460;42.684;23.260;2023-07-31T00:18:45;3.83;;;3.10;;
12792;SDS011;6460;42.684;23.260;2023-07-31T00:21:14;4.13;;;3.30;;
12792;SDS011;6460;42.684;23.260;2023-07-31T00:23:41;4.80;;;3.50;;
12792;SDS011;6460;42.684;23.260;2023-07-31T00:26:08;3.80;;;3.30;;
12792;SDS011;6460;42.684;23.260;2023-07-31T00:28:36;3.77;;;3.47;;
12792;SDS011;6460;42.684;23.260;2023-07-31T00:31:03;3.80;;;3.50;;
12792;SDS011;6460;42.684;23.260;2023-07-31T00:33:31;4.27;;;3.87;;
12792;SDS011;6460;42.684;23.260;2023-07-31T00:35:58;4.10;;;3.70;;
12792;SDS011;6460;42.684;23.260;2023-07-31T00:38:27;4.27;;;3.87;;
12792;SDS011;6460;42.684;23.260;2023-07-31T00:40:54;4.97;;;4.23;;
12792;SDS011;6460;42.684;23.260;2023-07-31T00:43:22;4.80;;;4.30;;
12792;SDS011;6460;42.684;23.260;2023-07-31T00:45:49;4.77;;;4.33;;
12792;SDS011;6460;42.684;23.260;2023-07-31T00:48:17;4.80;;;4.40;;
12792;SDS011;6460;42.684;23.260;2023-07-31T00:50:44;4.87;;;4.43;;
12792;SDS011;6460;42.684;23.260;2023-07-31T00:53:12;5.20;;;4.70;;
12792;SDS011;6460;42.684;23.260;2023-07-31T00:55:41;5.87;;;5.27;;
12792;SDS011;6460;42.684;23.260;2023-07-31T00:58:10;6.53;;;5.50;;
12792;SDS011;6460;42.684;23.260;2023-07-31T01:00:37;7.17;;;6.00;;
12792;SDS011;6460;42.684;23.260;2023-07-31T01:03:04;6.80;;;6.10;;
12792;SDS011;6460;42.684;23.260;2023-07-31T01:05:33;7.43;;;6.10;;
12792;SDS011;6460;42.684;23.260;2023-07-31T01:08:08;8.40;;;7.10;;
12792;SDS011;6460;42.684;23.260;2023-07-31T01:10:49;7.80;;;6.77;;
12792;SDS011;6460;42.684;23.260;2023-07-31T01:13:21;8.40;;;7.60;;
12792;SDS011;6460;42.684;23.260;2023-07-31T01:15:49;8.77;;;7.87;;
12792;SDS011;6460;42.684;23.260;2023-07-31T01:18:16;9.43;;;8.30;;
12792;SDS011;6460;42.684;23.260;2023-07-31T01:20:43;9.97;;;8.10;;
12792;SDS011;6460;42.684;23.260;2023-07-31T01:26:16;11.03;;;9.67;;
12792;SDS011;6460;42.684;23.260;2023-07-31T01:28:50;14.63;;;10.60;;
12792;SDS011;6460;42.684;23.260;2023-07-31T01:31:23;12.13;;;10.37;;
12792;SDS011;6460;42.684;23.260;2023-07-31T01:33:52;11.80;;;10.40;;
12792;SDS011;6460;42.684;23.260;2023-07-31T01:36:21;14.23;;;11.77;;
12792;SDS011;6460;42.684;23.260;2023-07-31T01:38:49;13.27;;;11.63;;
12792;SDS011;6460;42.684;23.260;2023-07-31T01:41:18;15.27;;;12.60;;
12792;SDS011;6460;42.684;23.260;2023-07-31T01:43:45;14.60;;;12.20;;
12792;SDS011;6460;42.684;23.260;2023-07-31T01:46:13;14.97;;;12.63;;
12792;SDS011;6460;42.684;23.260;2023-07-31T01:48:40;15.00;;;12.83;;
12792;SDS011;6460;42.684;23.260;2023-07-31T01:51:08;16.43;;;13.53;;
12792;SDS011;6460;42.684;23.260;2023-07-31T01:53:35;16.20;;;12.80;;
12792;SDS011;6460;42.684;23.260;2023-07-31T01:56:03;16.73;;;13.60;;
12792;SDS011;6460;42.684;23.260;2023-07-31T01:58:32;17.70;;;13.63;;
12792;SDS011;6460;42.684;23.260;2023-07-31T02:00:59;14.40;;;12.87;;
12792;SDS011;6460;42.684;23.260;2023-07-31T02:03:26;16.27;;;13.10;;
12792;SDS011;6460;42.684;23.260;2023-07-31T02:05:54;16.03;;;13.13;;
12792;SDS011;6460;42.684;23.260;2023-07-31T02:08:22;15.73;;;13.07;;
12792;SDS011;6460;42.684;23.260;2023-07-31T02:10:49;15.87;;;13.17;;
12792;SDS011;6460;42.684;23.260;2023-07-31T02:13:17;17.17;;;13.33;;
12792;SDS011;6460;42.684;23.260;2023-07-31T02:15:46;15.07;;;13.10;;
12792;SDS011;6460;42.684;23.260;2023-07-31T02:18:13;15.80;;;13.33;;
12792;SDS011;6460;42.684;23.260;2023-07-31T02:20:41;17.13;;;13.13;;
12792;SDS011;6460;42.684;23.260;2023-07-31T02:23:08;15.60;;;12.80;;
12792;SDS011;6460;42.684;23.260;2023-07-31T02:25:35;14.33;;;12.67;;
12792;SDS011;6460;42.684;23.260;2023-07-31T02:28:03;17.27;;;13.30;;
12792;SDS011;6460;42.684;23.260;2023-07-31T02:30:30;16.70;;;13.50;;
12792;SDS011;6460;42.684;23.260;2023-07-31T02:32:59;15.00;;;12.60;;
12792;SDS011;6460;42.684;23.260;2023-07-31T02:35:26;14.53;;;12.00;;
12792;SDS011;6460;42.684;23.260;2023-07-31T02:37:54;16.10;;;12.53;;
12792;SDS011;6460;42.684;23.260;2023-07-31T02:40:21;15.57;;;12.63;;
12792;SDS011;6460;42.684;23.260;2023-07-31T02:42:48;15.53;;;12.23;;
12792;SDS011;6460;42.684;23.260;2023-07-31T02:45:16;15.47;;;12.90;;
12792;SDS011;6460;42.684;23.260;2023-07-31T02:47:43;14.90;;;13.13;;
12792;SDS011;6460;42.684;23.260;2023-07-31T02:50:12;15.10;;;12.90;;
12792;SDS011;6460;42.684;23.260;2023-07-31T02:52:39;15.47;;;13.67;;
12792;SDS011;6460;42.684;23.260;2023-07-31T02:55:07;15.70;;;12.90;;
12792;SDS011;6460;42.684;23.260;2023-07-31T02:57:34;15.63;;;13.00;;
12792;SDS011;6460;42.684;23.260;2023-07-31T03:00:02;16.70;;;13.37;;
12792;SDS011;6460;42.684;23.260;2023-07-31T03:02:31;16.97;;;13.80;;
12792;SDS011;6460;42.684;23.260;2023-07-31T03:04:59;26.07;;;22.13;;
12792;SDS011;6460;42.684;23.260;2023-07-31T03:07:27;23.00;;;18.90;;
12792;SDS011;6460;42.684;23.260;2023-07-31T03:09:55;19.23;;;16.07;;
12792;SDS011;6460;42.684;23.260;2023-07-31T03:12:23;20.17;;;15.67;;
12792;SDS011;6460;42.684;23.260;2023-07-31T03:14:50;19.37;;;15.70;;
12792;SDS011;6460;42.684;23.260;2023-07-31T03:17:17;16.73;;;13.37;;
12792;SDS011;6460;42.684;23.260;2023-07-31T03:19:45;18.53;;;13.80;;
12792;SDS011;6460;42.684;23.260;2023-07-31T03:22:12;17.13;;;13.93;;
12792;SDS011;6460;42.684;23.260;2023-07-31T03:24:41;16.73;;;13.93;;
12792;SDS011;6460;42.684;23.260;2023-07-31T03:27:08;17.77;;;13.63;;
12792;SDS011;6460;42.684;23.260;2023-07-31T03:29:36;17.90;;;14.20;;
12792;SDS011;6460;42.684;23.260;2023-07-31T03:32:03;18.27;;;13.63;;
12792;SDS011;6460;42.684;23.260;2023-07-31T03:34:31;17.13;;;13.23;;
12792;SDS011;6460;42.684;23.260;2023-07-31T03:36:59;18.47;;;14.27;;
12792;SDS011;6460;42.684;23.260;2023-07-31T03:39:26;18.27;;;13.57;;
12792;SDS011;6460;42.684;23.260;2023-07-31T03:41:55;17.27;;;13.27;;
12792;SDS011;6460;42.684;23.260;2023-07-31T03:44:22;16.40;;;13.23;;
12792;SDS011;6460;42.684;23.260;2023-07-31T03:46:49;17.27;;;13.37;;
12792;SDS011;6460;42.684;23.260;2023-07-31T03:49:17;16.90;;;12.33;;
12792;SDS011;6460;42.684;23.260;2023-07-31T03:51:44;17.30;;;13.17;;
12792;SDS011;6460;42.684;23.260;2023-07-31T03:54:11;18.33;;;14.30;;
12792;SDS011;6460;42.684;23.260;2023-07-31T03:56:39;19.03;;;13.83;;
12792;SDS011;6460;42.684;23.260;2023-07-31T03:59:08;17.43;;;13.83;;
12792;SDS011;6460;42.684;23.260;2023-07-31T04:01:36;17.53;;;14.27;;
12792;SDS011;6460;42.684;23.260;2023-07-31T04:04:03;18.97;;;14.10;;
12792;SDS011;6460;42.684;23.260;2023-07-31T04:06:30;18.43;;;13.30;;
12792;SDS011;6460;42.684;23.260;2023-07-31T04:08:58;17.90;;;13.97;;
12792;SDS011;6460;42.684;23.260;2023-07-31T04:11:25;17.93;;;14.23;;
12792;SDS011;6460;42.684;23.260;2023-07-31T04:13:53;19.47;;;13.90;;
12792;SDS011;6460;42.684;23.260;2023-07-31T04:16:22;18.63;;;14.07;;
12792;SDS011;6460;42.684;23.260;2023-07-31T04:18:49;19.27;;;14.83;;
12792;SDS011;6460;42.684;23.260;2023-07-31T04:21:16;18.07;;;14.03;;
12792;SDS011;6460;42.684;23.260;2023-07-31T04:23:44;18.40;;;13.77;;
12792;SDS011;6460;42.684;23.260;2023-07-31T04:26:11;17.50;;;13.40;;
12792;SDS011;6460;42.684;23.260;2023-07-31T04:28:38;18.47;;;14.40;;
12792;SDS011;6460;42.684;23.260;2023-07-31T04:31:05;18.90;;;14.20;;
12792;SDS011;6460;42.684;23.260;2023-07-31T04:33:35;19.03;;;14.27;;
12792;SDS011;6460;42.684;23.260;2023-07-31T04:36:03;17.00;;;13.27;;
12792;SDS011;6460;42.684;23.260;2023-07-31T04:38:31;18.30;;;13.77;;
12792;SDS011;6460;42.684;23.260;2023-07-31T04:40:58;17.80;;;13.33;;
12792;SDS011;6460;42.684;23.260;2023-07-31T04:43:26;16.70;;;13.10;;
12792;SDS011;6460;42.684;23.260;2023-07-31T04:45:53;19.67;;;13.93;;
12792;SDS011;6460;42.684;23.260;2023-07-31T04:48:21;16.33;;;13.10;;
12792;SDS011;6460;42.684;23.260;2023-07-31T04:50:50;19.47;;;13.67;;
12792;SDS011;6460;42.684;23.260;2023-07-31T04:53:17;17.17;;;13.53;;
12792;SDS011;6460;42.684;23.260;2023-07-31T04:55:45;15.77;;;12.20;;
12792;SDS011;6460;42.684;23.260;2023-07-31T04:58:12;16.33;;;13.63;;
12792;SDS011;6460;42.684;23.260;2023-07-31T05:00:40;14.87;;;12.20;;
12792;SDS011;6460;42.684;23.260;2023-07-31T05:03:07;15.07;;;12.03;;
12792;SDS011;6460;42.684;23.260;2023-07-31T05:05:36;16.30;;;12.10;;
12792;SDS011;6460;42.684;23.260;2023-07-31T05:08:04;15.30;;;12.80;;
12792;SDS011;6460;42.684;23.260;2023-07-31T05:10:32;15.77;;;12.67;;
12792;SDS011;6460;42.684;23.260;2023-07-31T05:12:59;15.20;;;11.93;;
12792;SDS011;6460;42.684;23.260;2023-07-31T05:15:27;15.13;;;12.47;;
12792;SDS011;6460;42.684;23.260;2023-07-31T05:17:54;14.33;;;11.33;;
12792;SDS011;6460;42.684;23.260;2023-07-31T05:20:22;13.37;;;11.33;;
12792;SDS011;6460;42.684;23.260;2023-07-31T05:22:50;12.20;;;10.33;;
12792;SDS011;6460;42.684;23.260;2023-07-31T05:25:19;12.73;;;10.57;;
12792;SDS011;6460;42.684;23.260;2023-07-31T05:27:46;11.57;;;9.43;;
12792;SDS011;6460;42.684;23.260;2023-07-31T05:30:14;12.10;;;9.03;;
12792;SDS011;6460;42.684;23.260;2023-07-31T05:32:41;10.03;;;8.87;;
12792;SDS011;6460;42.684;23.260;2023-07-31T05:35:09;12.63;;;9.30;;
12792;SDS011;6460;42.684;23.260;2023-07-31T05:37:36;8.47;;;7.10;;
12792;SDS011;6460;42.684;23.260;2023-07-31T05:40:04;10.00;;;7.57;;
12792;SDS011;6460;42.684;23.260;2023-07-31T05:42:34;9.23;;;8.23;;
12792;SDS011;6460;42.684;23.260;2023-07-31T05:45:04;8.67;;;7.77;;
12792;SDS011;6460;42.684;23.260;2023-07-31T05:47:33;7.27;;;6.50;;
12792;SDS011;6460;42.684;23.260;2023-07-31T05:50:00;8.00;;;7.13;;
12792;SDS011;6460;42.684;23.260;2023-07-31T05:52:28;5.50;;;4.93;;
12792;SDS011;6460;42.684;23.260;2023-07-31T05:54:55;6.30;;;5.70;;
12792;SDS011;6460;42.684;23.260;2023-07-31T05:57:22;6.27;;;5.33;;
12792;SDS011;6460;42.684;23.260;2023-07-31T05:59:51;7.03;;;5.23;;
12792;SDS011;6460;42.684;23.260;2023-07-31T06:02:19;6.47;;;5.23;;
12792;SDS011;6460;42.684;23.260;2023-07-31T06:04:47;5.43;;;4.90;;
12792;SDS011;6460;42.684;23.260;2023-07-31T06:07:14;4.73;;;4.07;;
12792;SDS011;6460;42.684;23.260;2023-07-31T06:09:41;4.27;;;3.87;;
12792;SDS011;6460;42.684;23.260;2023-07-31T06:12:09;4.83;;;4.33;;
12792;SDS011;6460;42.684;23.260;2023-07-31T06:14:35;5.10;;;4.60;;
12792;SDS011;6460;42.684;23.260;2023-07-31T06:17:04;5.00;;;4.50;;
12792;SDS011;6460;42.684;23.260;2023-07-31T06:19:32;4.43;;;4.03;;
12792;SDS011;6460;42.684;23.260;2023-07-31T06:21:59;4.67;;;3.80;;
12792;SDS011;6460;42.684;23.260;2023-07-31T06:24:27;4.53;;;4.00;;
12792;SDS011;6460;42.684;23.260;2023-07-31T06:26:55;4.43;;;3.60;;
12792;SDS011;6460;42.684;23.260;2023-07-31T06:29:22;5.30;;;4.07;;
12792;SDS011;6460;42.684;23.260;2023-07-31T06:31:49;4.03;;;3.63;;
12792;SDS011;6460;42.684;23.260;2023-07-31T06:34:18;5.10;;;4.10;;
12792;SDS011;6460;42.684;23.260;2023-07-31T06:36:46;4.90;;;3.87;;
12792;SDS011;6460;42.684;23.260;2023-07-31T06:39:13;3.97;;;3.57;;
12792;SDS011;6460;42.684;23.260;2023-07-31T06:41:41;3.97;;;3.57;;
12792;SDS011;6460;42.684;23.260;2023-07-31T06:44:09;4.33;;;3.57;;
12792;SDS011;6460;42.684;23.260;2023-07-31T06:46:36;3.93;;;3.40;;
12792;SDS011;6460;42.684;23.260;2023-07-31T06:49:04;4.63;;;4.10;;
12792;SDS011;6460;42.684;23.260;2023-07-31T06:51:33;4.80;;;3.80;;
12792;SDS011;6460;42.684;23.260;2023-07-31T06:54:01;5.47;;;3.77;;
12792;SDS011;6460;42.684;23.260;2023-07-31T06:56:29;3.90;;;3.10;;
12792;SDS011;6460;42.684;23.260;2023-07-31T06:58:56;4.63;;;3.27;;
12792;SDS011;6460;42.684;23.260;2023-07-31T07:01:23;3.67;;;3.23;;
12792;SDS011;6460;42.684;23.260;2023-07-31T07:03:51;6.13;;;3.43;;
12792;SDS011;6460;42.684;23.260;2023-07-31T07:06:18;3.83;;;3.40;;
12792;SDS011;6460;42.684;23.260;2023-07-31T07:08:47;3.00;;;2.70;;
12792;SDS011;6460;42.684;23.260;2023-07-31T07:11:15;3.60;;;2.87;;
12792;SDS011;6460;42.684;23.260;2023-07-31T07:13:42;3.97;;;3.03;;
12792;SDS011;6460;42.684;23.260;2023-07-31T07:16:09;3.03;;;2.73;;
12792;SDS011;6460;42.684;23.260;2023-07-31T07:18:37;3.43;;;2.80;;
12792;SDS011;6460;42.684;23.260;2023-07-31T07:21:04;2.77;;;2.57;;
12792;SDS011;6460;42.684;23.260;2023-07-31T07:23:31;4.63;;;2.80;;
12792;SDS011;6460;42.684;23.260;2023-07-31T07:26:00;2.97;;;2.60;;
12792;SDS011;6460;42.684;23.260;2023-07-31T07:28:27;3.80;;;2.63;;
12792;SDS011;6460;42.684;23.260;2023-07-31T07:30:54;2.70;;;2.50;;
12792;SDS011;6460;42.684;23.260;2023-07-31T07:33:22;2.97;;;2.60;;
12792;SDS011;6460;42.684;23.260;2023-07-31T07:35:50;3.70;;;2.60;;
12792;SDS011;6460;42.684;23.260;2023-07-31T07:38:17;3.10;;;2.80;;
12792;SDS011;6460;42.684;23.260;2023-07-31T07:40:46;3.83;;;2.40;;
12792;SDS011;6460;42.684;23.260;2023-07-31T07:43:17;3.80;;;2.87;;
12792;SDS011;6460;42.684;23.260;2023-07-31T07:45:44;2.73;;;2.53;;
12792;SDS011;6460;42.684;23.260;2023-07-31T07:48:12;3.20;;;2.40;;
12792;SDS011;6460;42.684;23.260;2023-07-31T07:50:39;3.13;;;2.83;;
12792;SDS011;6460;42.684;23.260;2023-07-31T07:53:06;3.17;;;2.17;;
12792;SDS011;6460;42.684;23.260;2023-07-31T07:55:34;2.57;;;2.37;;
12792;SDS011;6460;42.684;23.260;2023-07-31T07:58:02;3.17;;;2.53;;
12792;SDS011;6460;42.684;23.260;2023-07-31T08:00:30;3.10;;;2.80;;
12792;SDS011;6460;42.684;23.260;2023-07-31T08:02:57;3.10;;;2.60;;
12792;SDS011;6460;42.684;23.260;2023-07-31T08:05:25;2.57;;;2.37;;
12792;SDS011;6460;42.684;23.260;2023-07-31T08:07:52;4.33;;;2.80;;
12792;SDS011;6460;42.684;23.260;2023-07-31T08:10:20;3.30;;;2.87;;
12792;SDS011;6460;42.684;23.260;2023-07-31T08:12:47;3.23;;;2.60;;
12792;SDS011;6460;42.684;23.260;2023-07-31T08:15:14;3.17;;;2.87;;
12792;SDS011;6460;42.684;23.260;2023-07-31T08:17:44;2.90;;;2.60;;
12792;SDS011;6460;42.684;23.260;2023-07-31T08:20:11;2.90;;;2.70;;
12792;SDS011;6460;42.684;23.260;2023-07-31T08:22:39;2.90;;;2.60;;
12792;SDS011;6460;42.684;23.260;2023-07-31T08:25:07;3.60;;;2.77;;
12792;SDS011;6460;42.684;23.260;2023-07-31T08:27:35;2.23;;;2.03;;
12792;SDS011;6460;42.684;23.260;2023-07-31T08:30:02;3.30;;;2.60;;
12792;SDS011;6460;42.684;23.260;2023-07-31T08:32:30;3.10;;;2.80;;
12792;SDS011;6460;42.684;23.260;2023-07-31T08:34:59;3.10;;;2.47;;
12792;SDS011;6460;42.684;23.260;2023-07-31T08:37:26;3.43;;;2.43;;
12792;SDS011;6460;42.684;23.260;2023-07-31T08:39:53;2.77;;;2.53;;
12792;SDS011;6460;42.684;23.260;2023-07-31T08:42:21;2.80;;;2.57;;
12792;SDS011;6460;42.684;23.260;2023-07-31T08:44:50;3.10;;;2.80;;
12792;SDS011;6460;42.684;23.260;2023-07-31T08:47:19;2.90;;;2.60;;
12792;SDS011;6460;42.684;23.260;2023-07-31T08:49:47;2.80;;;2.50;;
12792;SDS011;6460;42.684;23.260;2023-07-31T08:52:16;2.37;;;2.17;;
12792;SDS011;6460;42.684;23.260;2023-07-31T08:54:44;3.57;;;2.20;;
12792;SDS011;6460;42.684;23.260;2023-07-31T08:57:11;2.67;;;2.47;;
12792;SDS011;6460;42.684;23.260;2023-07-31T08:59:39;2.63;;;2.43;;
12792;SDS011;6460;42.684;23.260;2023-07-31T09:02:08;2.70;;;2.50;;
12792;SDS011;6460;42.684;23.260;2023-07-31T09:04:36;2.60;;;2.30;;
12792;SDS011;6460;42.684;23.260;2023-07-31T09:07:03;2.37;;;2.17;;
12792;SDS011;6460;42.684;23.260;2023-07-31T09:09:33;2.43;;;2.23;;
12792;SDS011;6460;42.684;23.260;2023-07-31T09:12:01;2.80;;;2.60;;
12792;SDS011;6460;42.684;23.260;2023-07-31T09:14:28;2.70;;;2.50;;
12792;SDS011;6460;42.684;23.260;2023-07-31T09:16:56;2.83;;;2.53;;
12792;SDS011;6460;42.684;23.260;2023-07-31T09:19:25;3.63;;;2.47;;
12792;SDS011;6460;42.684;23.260;2023-07-31T09:21:53;3.13;;;2.60;;
12792;SDS011;6460;42.684;23.260;2023-07-31T09:24:25;3.03;;;2.73;;
12792;SDS011;6460;42.684;23.260;2023-07-31T09:26:55;2.97;;;2.47;;
12792;SDS011;6460;42.684;23.260;2023-07-31T09:29:23;3.43;;;2.90;;
12792;SDS011;6460;42.684;23.260;2023-07-31T09:31:52;3.33;;;2.90;;
12792;SDS011;6460;42.684;23.260;2023-07-31T09:34:20;2.70;;;2.50;;
12792;SDS011;6460;42.684;23.260;2023-07-31T09:36:54;3.13;;;2.50;;
12792;SDS011;6460;42.684;23.260;2023-07-31T09:39:23;2.93;;;2.63;;
12792;SDS011;6460;42.684;23.260;2023-07-31T09:41:53;3.00;;;2.60;;
12792;SDS011;6460;42.684;23.260;2023-07-31T09:44:28;2.97;;;2.13;;
12792;SDS011;6460;42.684;23.260;2023-07-31T09:47:05;3.07;;;2.40;;
12792;SDS011;6460;42.684;23.260;2023-07-31T09:49:32;2.80;;;2.60;;
12792;SDS011;6460;42.684;23.260;2023-07-31T09:51:59;2.80;;;2.53;;
12792;SDS011;6460;42.684;23.260;2023-07-31T09:54:26;2.63;;;2.37;;
12792;SDS011;6460;42.684;23.260;2023-07-31T09:56:54;3.77;;;2.43;;
12792;SDS011;6460;42.684;23.260;2023-07-31T09:59:24;2.40;;;2.20;;
12792;SDS011;6460;42.684;23.260;2023-07-31T10:01:51;3.40;;;2.27;;
12792;SDS011;6460;42.684;23.260;2023-07-31T10:04:22;2.50;;;2.30;;
12792;SDS011;6460;42.684;23.260;2023-07-31T10:06:54;4.40;;;2.20;;
12792;SDS011;6460;42.684;23.260;2023-07-31T10:09:22;2.57;;;2.00;;
12792;SDS011;6460;42.684;23.260;2023-07-31T10:11:54;2.20;;;2.00;;
12792;SDS011;6460;42.684;23.260;2023-07-31T10:14:26;2.40;;;2.20;;
12792;SDS011;6460;42.684;23.260;2023-07-31T10:16:54;2.40;;;2.13;;
12792;SDS011;6460;42.684;23.260;2023-07-31T10:19:23;2.43;;;2.23;;
12792;SDS011;6460;42.684;23.260;2023-07-31T10:21:53;2.40;;;2.20;;
12792;SDS011;6460;42.684;23.260;2023-07-31T10:24:22;2.77;;;2.40;;
12792;SDS011;6460;42.684;23.260;2023-07-31T10:26:52;2.20;;;2.00;;
12792;SDS011;6460;42.684;23.260;2023-07-31T10:29:24;2.50;;;2.30;;
12792;SDS011;6460;42.684;23.260;2023-07-31T10:31:52;2.40;;;2.00;;
12792;SDS011;6460;42.684;23.260;2023-07-31T10:34:22;2.00;;;1.80;;
12792;SDS011;6460;42.684;23.260;2023-07-31T10:36:50;4.70;;;2.10;;
12792;SDS011;6460;42.684;23.260;2023-07-31T10:39:55;2.37;;;2.17;;
12792;SDS011;6460;42.684;23.260;2023-07-31T10:42:33;2.47;;;1.97;;
12792;SDS011;6460;42.684;23.260;2023-07-31T10:45:03;2.30;;;1.87;;
12792;SDS011;6460;42.684;23.260;2023-07-31T10:47:36;1.97;;;1.77;;
12792;SDS011;6460;42.684;23.260;2023-07-31T10:50:13;1.93;;;1.80;;
12792;SDS011;6460;42.684;23.260;2023-07-31T10:52:46;2.93;;;1.80;;
12792;SDS011;6460;42.684;23.260;2023-07-31T10:55:25;2.50;;;1.90;;
12792;SDS011;6460;42.684;23.260;2023-07-31T10:57:54;1.93;;;1.73;;
12792;SDS011;6460;42.684;23.260;2023-07-31T11:00:24;1.70;;;1.60;;
12792;SDS011;6460;42.684;23.260;2023-07-31T11:02:57;1.70;;;1.60;;
12792;SDS011;6460;42.684;23.260;2023-07-31T11:05:41;2.07;;;1.70;;
12792;SDS011;6460;42.684;23.260;2023-07-31T11:08:16;2.70;;;1.93;;
12792;SDS011;6460;42.684;23.260;2023-07-31T11:10:46;2.20;;;1.80;;
12792;SDS011;6460;42.684;23.260;2023-07-31T11:13:14;2.00;;;1.90;;
12792;SDS011;6460;42.684;23.260;2023-07-31T11:15:43;2.13;;;1.93;;
12792;SDS011;6460;42.684;23.260;2023-07-31T11:18:10;1.67;;;1.57;;
12792;SDS011;6460;42.684;23.260;2023-07-31T11:20:37;2.00;;;1.80;;
12792;SDS011;6460;42.684;23.260;2023-07-31T11:23:07;2.13;;;1.93;;
12792;SDS011;6460;42.684;23.260;2023-07-31T11:25:35;3.30;;;2.10;;
12792;SDS011;6460;42.684;23.260;2023-07-31T11:28:04;1.80;;;1.70;;
12792;SDS011;6460;42.684;23.260;2023-07-31T11:30:32;2.23;;;2.03;;
12792;SDS011;6460;42.684;23.260;2023-07-31T11:33:02;2.23;;;2.03;;
12792;SDS011;6460;42.684;23.260;2023-07-31T11:35:31;2.70;;;2.50;;
12792;SDS011;6460;42.684;23.260;2023-07-31T11:37:59;2.50;;;2.30;;
12792;SDS011;6460;42.684;23.260;2023-07-31T11:40:27;3.70;;;2.43;;
12792;SDS011;6460;42.684;23.260;2023-07-31T11:42:58;2.50;;;2.30;;
12792;SDS011;6460;42.684;23.260;2023-07-31T11:45:26;2.67;;;2.20;;
12792;SDS011;6460;42.684;23.260;2023-07-31T11:47:54;2.80;;;2.23;;
12792;SDS011;6460;42.684;23.260;2023-07-31T11:50:24;3.60;;;2.23;;
12792;SDS011;6460;42.684;23.260;2023-07-31T11:52:52;2.63;;;2.43;;
12792;SDS011;6460;42.684;23.260;2023-07-31T11:55:23;2.43;;;2.23;;
12792;SDS011;6460;42.684;23.260;2023-07-31T11:57:52;2.33;;;2.13;;
12792;SDS011;6460;42.684;23.260;2023-07-31T12:00:22;3.10;;;2.80;;
12792;SDS011;6460;42.684;23.260;2023-07-31T12:02:50;4.00;;;3.47;;
12792;SDS011;6460;42.684;23.260;2023-07-31T12:05:18;3.37;;;3.07;;
12792;SDS011;6460;42.684;23.260;2023-07-31T12:07:49;5.13;;;3.40;;
12792;SDS011;6460;42.684;23.260;2023-07-31T12:10:25;4.43;;;3.63;;
12792;SDS011;6460;42.684;23.260;2023-07-31T12:12:58;7.10;;;4.83;;
12792;SDS011;6460;42.684;23.260;2023-07-31T12:15:37;6.47;;;4.90;;
12792;SDS011;6460;42.684;23.260;2023-07-31T12:18:05;5.07;;;4.57;;
12792;SDS011;6460;42.684;23.260;2023-07-31T12:20:33;4.63;;;4.23;;
12792;SDS011;6460;42.684;23.260;2023-07-31T12:23:03;4.60;;;4.20;;
12792;SDS011;6460;42.684;23.260;2023-07-31T12:25:31;4.90;;;4.40;;
12792;SDS011;6460;42.684;23.260;2023-07-31T12:28:04;4.23;;;3.83;;
12792;SDS011;6460;42.684;23.260;2023-07-31T12:30:37;4.73;;;4.33;;
12792;SDS011;6460;42.684;23.260;2023-07-31T12:33:06;4.70;;;4.30;;
12792;SDS011;6460;42.684;23.260;2023-07-31T12:35:40;4.30;;;3.90;;
12792;SDS011;6460;42.684;23.260;2023-07-31T12:38:13;4.27;;;3.87;;
12792;SDS011;6460;42.684;23.260;2023-07-31T12:40:41;4.67;;;4.27;;
12792;SDS011;6460;42.684;23.260;2023-07-31T12:43:08;4.07;;;3.70;;
12792;SDS011;6460;42.684;23.260;2023-07-31T12:45:35;4.87;;;4.37;;
12792;SDS011;6460;42.684;23.260;2023-07-31T12:48:03;4.37;;;3.80;;
12792;SDS011;6460;42.684;23.260;2023-07-31T12:50:31;4.63;;;4.20;;
12792;SDS011;6460;42.684;23.260;2023-07-31T12:52:58;4.90;;;4.40;;
12792;SDS011;6460;42.684;23.260;2023-07-31T12:55:27;4.53;;;3.87;;
12792;SDS011;6460;42.684;23.260;2023-07-31T12:57:55;6.77;;;4.17;;
12792;SDS011;6460;42.684;23.260;2023-07-31T13:00:22;9.17;;;5.37;;
12792;SDS011;6460;42.684;23.260;2023-07-31T13:02:51;5.33;;;4.83;;
12792;SDS011;6460;42.684;23.260;2023-07-31T13:05:18;5.27;;;4.73;;
12792;SDS011;6460;42.684;23.260;2023-07-31T13:07:46;4.60;;;4.20;;
12792;SDS011;6460;42.684;23.260;2023-07-31T13:10:13;4.87;;;4.37;;
12792;SDS011;6460;42.684;23.260;2023-07-31T13:12:43;5.00;;;4.60;;
12792;SDS011;6460;42.684;23.260;2023-07-31T13:15:10;4.80;;;4.40;;
12792;SDS011;6460;42.684;23.260;2023-07-31T13:17:39;5.10;;;4.43;;
12792;SDS011;6460;42.684;23.260;2023-07-31T13:20:07;4.83;;;4.33;;
12792;SDS011;6460;42.684;23.260;2023-07-31T13:22:35;4.10;;;3.70;;
12792;SDS011;6460;42.684;23.260;2023-07-31T13:25:02;8.27;;;4.03;;
12792;SDS011;6460;42.684;23.260;2023-07-31T13:27:30;4.30;;;3.90;;
12792;SDS011;6460;42.684;23.260;2023-07-31T13:29:59;3.87;;;3.53;;
12792;SDS011;6460;42.684;23.260;2023-07-31T13:32:26;4.43;;;3.70;;
12792;SDS011;6460;42.684;23.260;2023-07-31T13:34:54;4.40;;;4.00;;
12792;SDS011;6460;42.684;23.260;2023-07-31T13:37:21;4.00;;;3.60;;
12792;SDS011;6460;42.684;23.260;2023-07-31T13:39:48;4.93;;;4.30;;
12792;SDS011;6460;42.684;23.260;2023-07-31T13:42:15;4.10;;;3.70;;
12792;SDS011;6460;42.684;23.260;2023-07-31T13:44:43;4.33;;;3.93;;
12792;SDS011;6460;42.684;23.260;2023-07-31T13:47:12;3.63;;;3.33;;
12792;SDS011;6460;42.684;23.260;2023-07-31T13:49:39;4.30;;;3.90;;
12792;SDS011;6460;42.684;23.260;2023-07-31T13:52:08;3.77;;;3.47;;
12792;SDS011;6460;42.684;23.260;2023-07-31T13:54:35;4.20;;;3.80;;
12792;SDS011;6460;42.684;23.260;2023-07-31T13:57:03;4.50;;;4.10;;
12792;SDS011;6460;42.684;23.260;2023-07-31T13:59:31;4.30;;;3.90;;
12792;SDS011;6460;42.684;23.260;2023-07-31T14:01:58;4.67;;;3.60;;
12792;SDS011;6460;42.684;23.260;2023-07-31T14:04:27;3.57;;;3.27;;
12792;SDS011;6460;42.684;23.260;2023-07-31T14:06:55;3.97;;;3.67;;
12792;SDS011;6460;42.684;23.260;2023-07-31T14:09:23;6.03;;;3.33;;
12792;SDS011;6460;42.684;23.260;2023-07-31T14:11:51;4.17;;;3.80;;
12792;SDS011;6460;42.684;23.260;2023-07-31T14:14:18;4.00;;;3.60;;
12792;SDS011;6460;42.684;23.260;2023-07-31T14:16:45;4.30;;;3.83;;
12792;SDS011;6460;42.684;23.260;2023-07-31T14:19:13;3.73;;;3.40;;
12792;SDS011;6460;42.684;23.260;2023-07-31T14:21:42;3.50;;;3.20;;
12792;SDS011;6460;42.684;23.260;2023-07-31T14:24:09;3.17;;;2.97;;
12792;SDS011;6460;42.684;23.260;2023-07-31T14:26:36;3.80;;;3.50;;
12792;SDS011;6460;42.684;23.260;2023-07-31T14:29:04;4.23;;;3.27;;
12792;SDS011;6460;42.684;23.260;2023-07-31T14:31:31;3.47;;;3.17;;
12792;SDS011;6460;42.684;23.260;2023-07-31T14:33:59;3.73;;;3.40;;
12792;SDS011;6460;42.684;23.260;2023-07-31T14:36:26;3.60;;;3.30;;
12792;SDS011;6460;42.684;23.260;2023-07-31T14:38:55;3.60;;;3.30;;
12792;SDS011;6460;42.684;23.260;2023-07-31T14:41:22;3.57;;;3.27;;
12792;SDS011;6460;42.684;23.260;2023-07-31T14:43:49;3.30;;;3.00;;
12792;SDS011;6460;42.684;23.260;2023-07-31T14:46:17;3.73;;;3.40;;
12792;SDS011;6460;42.684;23.260;2023-07-31T14:48:44;3.70;;;3.37;;
12792;SDS011;6460;42.684;23.260;2023-07-31T14:51:12;3.67;;;3.37;;